createdAt,value
2023-08-08T00:01:18.891Z,1.80
2023-08-08T00:03:46.592Z,3.60
2023-08-08T00:06:14.760Z,1.50
2023-08-08T00:08:42.661Z,1.70
2023-08-08T00:11:10.255Z,1.80
2023-08-08T00:13:38.098Z,1.80
2023-08-08T00:16:06.445Z,1.60
2023-08-08T00:18:34.195Z,1.50
2023-08-08T00:21:01.975Z,1.60
2023-08-08T00:23:29.820Z,1.50
2023-08-08T00:25:57.499Z,1.90
2023-08-08T00:28:25.580Z,1.20
2023-08-08T00:30:54.397Z,1.20
2023-08-08T00:33:22.203Z,1.80
2023-08-08T00:35:49.960Z,1.40
2023-08-08T00:38:19.485Z,1.20
2023-08-08T00:40:47.680Z,1.70
2023-08-08T00:43:15.449Z,1.60
2023-08-08T00:45:44.665Z,1.80
2023-08-08T00:48:13.009Z,1.60
2023-08-08T00:50:45.655Z,1.10
2023-08-08T00:53:13.705Z,1.30
2023-08-08T00:55:42.137Z,1.50
2023-08-08T00:58:10.229Z,1.30
2023-08-08T01:00:38.058Z,1.60
2023-08-08T01:03:06.467Z,1.50
2023-08-08T01:05:39.714Z,1.80
2023-08-08T01:08:08.857Z,1.70
2023-08-08T01:10:40.750Z,2.10
2023-08-08T01:13:12.610Z,1.10
2023-08-08T01:15:40.877Z,1.30
2023-08-08T01:18:11.049Z,1.50
2023-08-08T01:20:39.618Z,1.40
2023-08-08T01:23:20.865Z,1.50
2023-08-08T01:25:49.751Z,1.50
2023-08-08T01:28:21.717Z,1.60
2023-08-08T01:30:49.748Z,1.70
2023-08-08T01:33:17.603Z,1.50
2023-08-08T01:35:51.904Z,1.10
2023-08-08T01:38:28.278Z,1.00
2023-08-08T01:40:59.121Z,1.60
2023-08-08T01:43:28.080Z,1.50
2023-08-08T01:45:56.441Z,1.40
2023-08-08T01:48:24.310Z,1.60
2023-08-08T01:50:52.942Z,1.60
2023-08-08T01:53:20.664Z,1.50
2023-08-08T01:55:48.387Z,1.60
2023-08-08T01:58:16.385Z,1.20
2023-08-08T02:00:45.460Z,1.40
2023-08-08T02:03:13.180Z,1.30
2023-08-08T02:05:41.670Z,1.40
2023-08-08T02:08:09.336Z,1.50
2023-08-08T02:10:36.953Z,1.60
2023-08-08T02:13:05.189Z,1.80
2023-08-08T02:15:32.838Z,1.80
2023-08-08T02:18:02.031Z,1.60
2023-08-08T02:20:30.004Z,1.30
2023-08-08T02:22:57.616Z,1.20
2023-08-08T02:25:25.299Z,1.70
2023-08-08T02:27:53.168Z,1.70
2023-08-08T02:30:21.022Z,1.50
2023-08-08T02:32:48.710Z,1.50
2023-08-08T02:35:16.736Z,1.60
2023-08-08T02:37:44.403Z,1.80
2023-08-08T02:40:12.341Z,1.80
2023-08-08T02:42:40.350Z,1.10
2023-08-08T02:45:08.783Z,1.20
2023-08-08T02:47:36.496Z,1.50
2023-08-08T02:50:04.938Z,1.50
2023-08-08T02:52:33.371Z,1.60
2023-08-08T02:55:01.064Z,1.50
2023-08-08T02:57:29.328Z,1.70
2023-08-08T02:59:57.255Z,1.70
2023-08-08T03:02:25.627Z,1.90
2023-08-08T03:04:54.333Z,1.50
2023-08-08T03:07:23.032Z,1.40
2023-08-08T03:09:51.596Z,1.30
2023-08-08T03:12:19.620Z,1.50
2023-08-08T03:14:48.517Z,1.70
2023-08-08T03:17:16.167Z,1.40
2023-08-08T03:19:44.859Z,1.50
2023-08-08T03:22:12.970Z,1.40
2023-08-08T03:24:41.049Z,1.30
2023-08-08T03:27:08.802Z,1.40
2023-08-08T03:29:36.557Z,1.60
2023-08-08T03:32:06.035Z,1.40
2023-08-08T03:34:34.213Z,1.50
2023-08-08T03:37:02.020Z,1.40
2023-08-08T03:39:29.843Z,1.40
2023-08-08T03:41:57.982Z,1.70
2023-08-08T03:44:26.128Z,1.30
2023-08-08T03:47:02.296Z,1.50
2023-08-08T03:49:37.748Z,1.30
2023-08-08T03:52:05.734Z,1.60
2023-08-08T03:54:33.836Z,1.40
2023-08-08T03:57:02.367Z,1.40
2023-08-08T03:59:30.292Z,1.30
2023-08-08T04:01:57.955Z,1.40
2023-08-08T04:04:25.727Z,1.40
2023-08-08T04:06:53.483Z,1.20
2023-08-08T04:09:21.170Z,1.70
2023-08-08T04:11:48.982Z,1.40
2023-08-08T04:14:16.727Z,1.40
2023-08-08T04:16:44.351Z,1.50
2023-08-08T04:19:12.096Z,1.30
2023-08-08T04:21:39.960Z,1.20
2023-08-08T04:24:09.089Z,1.40
2023-08-08T04:26:36.923Z,1.30
2023-08-08T04:29:04.963Z,1.40
2023-08-08T04:31:32.615Z,1.60
2023-08-08T04:34:02.636Z,1.60
2023-08-08T04:38:59.420Z,1.30
2023-08-08T04:41:27.102Z,1.10
2023-08-08T04:43:54.867Z,1.50
2023-08-08T04:46:22.739Z,1.30
2023-08-08T04:48:50.678Z,1.50
2023-08-08T04:51:19.181Z,2.10
2023-08-08T04:53:46.752Z,1.40
2023-08-08T04:56:14.829Z,1.70
2023-08-08T04:58:42.530Z,1.40
2023-08-08T05:01:13.360Z,1.50
2023-08-08T05:03:41.750Z,1.20
2023-08-08T05:06:09.509Z,1.20
2023-08-08T05:08:37.303Z,1.20
2023-08-08T05:11:05.009Z,1.00
2023-08-08T05:13:32.671Z,1.10
2023-08-08T05:16:00.442Z,1.10
2023-08-08T05:18:28.107Z,1.20
2023-08-08T05:20:55.723Z,1.00
2023-08-08T05:23:23.585Z,0.80
2023-08-08T05:25:51.266Z,1.20
2023-08-08T05:28:18.933Z,1.60
2023-08-08T05:30:46.745Z,1.10
2023-08-08T05:33:14.571Z,1.10
2023-08-08T05:35:42.441Z,1.40
2023-08-08T05:38:10.095Z,1.00
2023-08-08T05:40:37.861Z,0.90
2023-08-08T05:43:05.903Z,0.90
2023-08-08T05:45:33.467Z,0.90
2023-08-08T05:48:01.783Z,0.90
2023-08-08T05:50:29.634Z,1.20
2023-08-08T05:52:57.425Z,0.90
2023-08-08T05:55:25.267Z,0.90
2023-08-08T05:57:53.027Z,0.90
2023-08-08T06:00:20.968Z,0.80
2023-08-08T06:02:48.654Z,1.00
2023-08-08T06:05:18.764Z,1.00
2023-08-08T06:07:46.605Z,0.80
2023-08-08T06:10:14.445Z,0.80
2023-08-08T06:12:42.875Z,0.90
2023-08-08T06:15:10.972Z,0.90
2023-08-08T06:17:38.755Z,1.00
2023-08-08T06:20:08.333Z,0.90
2023-08-08T06:22:36.246Z,0.90
2023-08-08T06:25:04.708Z,0.80
2023-08-08T06:27:32.310Z,0.80
2023-08-08T06:30:00.391Z,1.00
2023-08-08T06:32:28.548Z,0.90
2023-08-08T06:34:56.456Z,0.90
2023-08-08T06:37:24.460Z,0.90
2023-08-08T06:39:52.065Z,0.90
2023-08-08T06:42:22.920Z,0.90
2023-08-08T06:44:58.072Z,1.00
2023-08-08T06:47:25.863Z,0.80
2023-08-08T06:49:54.053Z,0.90
2023-08-08T06:52:23.700Z,1.00
2023-08-08T06:54:51.436Z,0.90
2023-08-08T06:57:19.087Z,0.80
2023-08-08T06:59:51.766Z,1.10
2023-08-08T07:02:20.558Z,0.70
2023-08-08T07:04:48.506Z,1.00
2023-08-08T07:07:16.325Z,1.30
2023-08-08T07:09:45.144Z,0.90
2023-08-08T07:12:12.933Z,0.90
2023-08-08T07:14:41.007Z,1.00
2023-08-08T07:17:08.667Z,0.90
2023-08-08T07:19:37.603Z,1.10
2023-08-08T07:22:05.571Z,0.90
2023-08-08T07:24:33.245Z,1.00
2023-08-08T07:27:00.988Z,0.90
2023-08-08T07:29:28.693Z,1.10
2023-08-08T07:31:56.924Z,0.80
2023-08-08T07:34:24.705Z,0.90
2023-08-08T07:36:52.515Z,0.80
2023-08-08T07:39:20.322Z,0.70
2023-08-08T07:41:48.043Z,0.70
2023-08-08T07:44:15.720Z,0.80
2023-08-08T07:46:43.619Z,0.80
2023-08-08T07:49:11.507Z,0.70
2023-08-08T07:51:39.191Z,0.70
2023-08-08T07:54:09.868Z,0.90
2023-08-08T07:56:38.147Z,0.90
2023-08-08T07:59:06.643Z,0.70
2023-08-08T08:01:34.428Z,0.70
2023-08-08T08:04:04.181Z,0.70
2023-08-08T08:06:32.561Z,0.70
2023-08-08T08:09:00.481Z,0.80
2023-08-08T08:11:28.948Z,0.90
2023-08-08T08:13:56.728Z,0.70
2023-08-08T08:16:25.418Z,1.00
2023-08-08T08:18:53.089Z,0.80
2023-08-08T08:21:20.714Z,0.80
2023-08-08T08:23:49.109Z,0.80
2023-08-08T08:26:16.935Z,0.70
2023-08-08T08:28:44.726Z,0.80
2023-08-08T08:31:12.390Z,0.80
2023-08-08T08:33:40.308Z,0.90
2023-08-08T08:36:08.237Z,0.80
2023-08-08T08:38:35.843Z,0.70
2023-08-08T08:41:04.654Z,0.70
2023-08-08T08:43:33.518Z,0.80
2023-08-08T08:46:11.612Z,0.50
2023-08-08T08:48:39.508Z,1.00
2023-08-08T08:51:07.687Z,0.80
2023-08-08T08:53:40.933Z,0.80
2023-08-08T08:56:10.089Z,0.90
2023-08-08T08:58:37.916Z,0.80
2023-08-08T09:01:05.980Z,0.70
2023-08-08T09:03:34.018Z,0.80
2023-08-08T09:06:02.790Z,0.70
2023-08-08T09:08:30.826Z,0.60
2023-08-08T09:10:58.969Z,0.60
2023-08-08T09:13:27.930Z,0.80
2023-08-08T09:15:56.729Z,0.80
2023-08-08T09:18:26.157Z,0.60
2023-08-08T09:20:55.841Z,0.60
2023-08-08T09:23:23.800Z,0.90
2023-08-08T09:25:51.708Z,0.60
2023-08-08T09:28:19.753Z,0.70
2023-08-08T09:30:47.840Z,0.70
2023-08-08T09:33:15.541Z,0.60
2023-08-08T09:35:43.209Z,0.80
2023-08-08T09:38:11.388Z,0.70
2023-08-08T09:40:39.181Z,0.80
2023-08-08T09:43:10.025Z,0.70
2023-08-08T09:45:43.152Z,0.60
2023-08-08T09:48:11.036Z,0.60
2023-08-08T09:50:40.998Z,0.70
2023-08-08T09:53:09.793Z,0.70
2023-08-08T09:55:39.770Z,0.60
2023-08-08T09:58:10.201Z,0.60
2023-08-08T10:00:38.298Z,0.50
2023-08-08T10:03:06.777Z,0.70
2023-08-08T10:05:34.944Z,0.80
2023-08-08T10:08:02.746Z,0.70
2023-08-08T10:10:31.957Z,0.90
2023-08-08T10:13:00.622Z,0.80
2023-08-08T10:15:28.655Z,0.90
2023-08-08T10:17:59.810Z,0.80
2023-08-08T10:20:27.673Z,0.90
2023-08-08T10:22:58.037Z,0.90
2023-08-08T10:25:29.723Z,0.70
2023-08-08T10:28:19.537Z,0.70
2023-08-08T10:30:52.274Z,0.90
2023-08-08T10:33:22.641Z,0.80
2023-08-08T10:36:00.408Z,0.60
2023-08-08T10:38:44.081Z,0.70
2023-08-08T10:41:20.084Z,0.70
2023-08-08T10:43:54.584Z,0.70
2023-08-08T10:46:30.978Z,0.70
2023-08-08T10:49:01.727Z,0.80
2023-08-08T10:51:48.085Z,0.80
2023-08-08T10:54:17.040Z,0.90
2023-08-08T10:56:52.796Z,0.80
2023-08-08T10:59:26.193Z,0.70
2023-08-08T11:01:54.663Z,0.80
2023-08-08T11:04:24.691Z,0.70
2023-08-08T11:06:55.533Z,0.80
2023-08-08T11:09:24.701Z,0.60
2023-08-08T11:11:52.347Z,0.60
2023-08-08T11:14:22.673Z,0.70
2023-08-08T11:16:52.661Z,0.70
2023-08-08T11:19:22.302Z,0.60
2023-08-08T11:21:50.610Z,0.70
2023-08-08T11:24:18.486Z,0.70
2023-08-08T11:26:49.099Z,0.90
2023-08-08T11:29:16.895Z,0.70
2023-08-08T11:31:45.152Z,0.70
2023-08-08T11:34:13.973Z,0.80
2023-08-08T11:36:42.067Z,0.80
2023-08-08T11:39:13.235Z,1.00
2023-08-08T11:41:42.565Z,0.90
2023-08-08T11:44:10.533Z,0.80
2023-08-08T11:46:47.022Z,1.20
2023-08-08T11:49:17.653Z,0.90
2023-08-08T11:51:47.331Z,1.00
2023-08-08T11:54:16.025Z,1.00
2023-08-08T11:56:44.664Z,0.80
2023-08-08T11:59:13.850Z,1.10
2023-08-08T12:01:44.117Z,0.80
2023-08-08T12:04:11.848Z,1.00
2023-08-08T12:06:45.539Z,0.70
2023-08-08T12:09:16.724Z,0.90
2023-08-08T12:11:46.360Z,0.90
2023-08-08T12:14:16.189Z,0.80
2023-08-08T12:16:45.129Z,0.90
2023-08-08T12:19:14.066Z,1.00
2023-08-08T12:21:41.749Z,0.90
2023-08-08T12:24:09.625Z,1.30
2023-08-08T12:26:38.119Z,1.20
2023-08-08T12:29:05.955Z,0.90
2023-08-08T12:31:33.613Z,0.80
2023-08-08T12:34:01.427Z,0.80
2023-08-08T12:36:29.429Z,0.90
2023-08-08T12:38:57.150Z,0.70
2023-08-08T12:41:26.149Z,0.70
2023-08-08T12:43:54.049Z,0.90
2023-08-08T12:46:21.699Z,0.80
2023-08-08T12:48:49.525Z,0.90
2023-08-08T12:51:18.241Z,0.90
2023-08-08T12:53:46.105Z,0.80
2023-08-08T12:56:14.020Z,0.60
2023-08-08T12:58:42.139Z,0.80
2023-08-08T13:01:09.860Z,0.80
2023-08-08T13:03:37.450Z,0.70
2023-08-08T13:06:05.324Z,0.60
2023-08-08T13:08:33.877Z,0.70
2023-08-08T13:11:01.801Z,0.80
2023-08-08T13:13:29.646Z,0.70
2023-08-08T13:15:57.659Z,0.70
2023-08-08T13:18:25.304Z,0.90
2023-08-08T13:20:53.616Z,0.70
2023-08-08T13:23:21.436Z,0.70
2023-08-08T13:25:50.392Z,0.70
2023-08-08T13:28:18.246Z,0.80
2023-08-08T13:30:46.273Z,1.20
2023-08-08T13:33:13.936Z,0.80
2023-08-08T13:35:41.823Z,0.80
2023-08-08T13:38:15.950Z,1.00
2023-08-08T13:40:44.068Z,0.80
2023-08-08T13:43:11.830Z,1.00
2023-08-08T13:45:39.479Z,0.90
2023-08-08T13:48:07.699Z,0.80
2023-08-08T13:50:35.408Z,0.80
2023-08-08T13:53:03.161Z,0.70
2023-08-08T13:55:31.236Z,0.90
2023-08-08T13:57:59.299Z,0.80
2023-08-08T14:00:27.992Z,0.80
2023-08-08T14:02:56.037Z,0.80
2023-08-08T14:05:24.995Z,1.00
2023-08-08T14:07:52.595Z,0.80
2023-08-08T14:10:21.391Z,0.80
2023-08-08T14:12:49.004Z,1.00
2023-08-08T14:15:16.586Z,0.90
2023-08-08T14:17:45.881Z,0.80
2023-08-08T14:20:13.831Z,0.80
2023-08-08T14:22:41.473Z,0.90
2023-08-08T14:25:09.402Z,1.40
2023-08-08T14:27:37.317Z,1.40
2023-08-08T14:30:05.773Z,1.20
2023-08-08T14:32:34.226Z,1.10
2023-08-08T14:35:03.911Z,0.90
2023-08-08T14:37:32.557Z,1.00
2023-08-08T14:40:00.442Z,1.00
2023-08-08T14:42:28.079Z,1.00
2023-08-08T14:44:56.099Z,1.00
2023-08-08T14:47:24.306Z,0.90
2023-08-08T14:49:52.438Z,0.80
2023-08-08T14:52:20.299Z,0.90
2023-08-08T14:54:48.302Z,0.90
2023-08-08T14:57:16.014Z,0.90
2023-08-08T14:59:43.886Z,0.90
2023-08-08T15:02:11.937Z,1.10
2023-08-08T15:04:39.663Z,1.10
2023-08-08T15:07:07.480Z,0.90
2023-08-08T15:09:35.382Z,1.10
2023-08-08T15:12:02.958Z,1.00
2023-08-08T15:14:30.875Z,1.00
2023-08-08T15:16:58.968Z,1.00
2023-08-08T15:19:27.017Z,1.00
2023-08-08T15:21:55.791Z,1.10
2023-08-08T15:24:23.524Z,1.40
2023-08-08T15:26:51.095Z,1.50
2023-08-08T15:29:18.956Z,1.00
2023-08-08T15:31:46.896Z,1.40
2023-08-08T15:34:14.563Z,1.40
2023-08-08T15:36:42.516Z,1.10
2023-08-08T15:39:10.544Z,1.30
2023-08-08T15:41:38.317Z,1.60
2023-08-08T15:44:06.039Z,1.30
2023-08-08T15:46:34.025Z,1.30
2023-08-08T15:49:01.661Z,1.60
2023-08-08T15:51:29.536Z,1.30
2023-08-08T15:53:57.225Z,1.50
2023-08-08T15:56:24.823Z,1.20
2023-08-08T15:58:52.674Z,1.40
2023-08-08T16:01:20.313Z,1.10
2023-08-08T16:03:47.973Z,1.20
2023-08-08T16:06:15.719Z,1.20
2023-08-08T16:08:43.570Z,1.10
2023-08-08T16:11:11.186Z,0.90
2023-08-08T16:13:39.122Z,1.10
2023-08-08T16:16:06.761Z,1.10
2023-08-08T16:18:34.796Z,1.20
2023-08-08T16:21:02.702Z,1.00
2023-08-08T16:23:31.599Z,1.10
2023-08-08T16:25:59.315Z,1.40
2023-08-08T16:28:29.540Z,1.20
2023-08-08T16:30:57.711Z,1.60
2023-08-08T16:33:25.696Z,1.40
2023-08-08T16:35:54.049Z,1.60
2023-08-08T16:38:23.881Z,1.50
2023-08-08T16:40:54.820Z,1.50
2023-08-08T16:43:22.830Z,1.20
2023-08-08T16:45:50.738Z,0.80
2023-08-08T16:48:18.580Z,1.00
2023-08-08T16:50:46.194Z,1.00
2023-08-08T16:53:14.360Z,1.10
2023-08-08T16:55:43.193Z,1.20
2023-08-08T16:58:11.375Z,1.30
2023-08-08T17:00:39.121Z,1.40
2023-08-08T17:03:07.123Z,1.10
2023-08-08T17:05:35.250Z,1.30
2023-08-08T17:08:03.142Z,1.20
2023-08-08T17:10:31.149Z,0.90
2023-08-08T17:12:59.302Z,1.10
2023-08-08T17:15:27.049Z,1.50
2023-08-08T17:17:54.796Z,1.30
2023-08-08T17:20:22.576Z,1.40
2023-08-08T17:22:50.318Z,1.60
2023-08-08T17:25:18.171Z,1.20
2023-08-08T17:27:46.860Z,1.30
2023-08-08T17:30:14.753Z,1.30
2023-08-08T17:32:42.385Z,1.50
2023-08-08T17:35:10.241Z,1.40
2023-08-08T17:37:37.913Z,1.30
2023-08-08T17:40:06.181Z,1.60
2023-08-08T17:42:34.904Z,1.30
2023-08-08T17:45:05.008Z,1.40
2023-08-08T17:50:28.734Z,1.20
2023-08-08T17:52:57.376Z,1.30
2023-08-08T17:55:51.302Z,1.50
2023-08-08T17:58:45.887Z,3.60
2023-08-08T18:01:14.330Z,1.80
2023-08-08T18:03:42.244Z,1.30
2023-08-08T18:06:10.112Z,1.30
2023-08-08T18:08:38.156Z,1.20
2023-08-08T18:11:05.739Z,1.30
2023-08-08T18:13:33.520Z,1.30
2023-08-08T18:16:02.350Z,1.30
2023-08-08T18:18:30.293Z,1.10
2023-08-08T18:20:57.991Z,1.20
2023-08-08T18:23:28.800Z,1.20
2023-08-08T18:25:56.674Z,1.40
2023-08-08T18:28:24.350Z,1.40
2023-08-08T18:30:52.192Z,1.40
2023-08-08T18:33:20.113Z,1.40
2023-08-08T18:35:48.241Z,1.30
2023-08-08T18:38:18.742Z,1.50
2023-08-08T18:40:46.651Z,1.30
2023-08-08T18:43:14.305Z,1.40
2023-08-08T18:45:42.201Z,1.50
2023-08-08T18:48:10.364Z,2.00
2023-08-08T18:50:38.365Z,1.40
2023-08-08T18:53:07.525Z,1.40
2023-08-08T18:55:36.124Z,1.40
2023-08-08T18:58:04.143Z,1.30
2023-08-08T19:00:31.984Z,1.40
2023-08-08T19:02:59.978Z,1.40
2023-08-08T19:05:29.463Z,1.70
2023-08-08T19:07:58.574Z,2.60
2023-08-08T19:10:26.196Z,3.30
2023-08-08T19:12:53.811Z,3.40
2023-08-08T19:15:22.303Z,2.00
2023-08-08T19:17:56.228Z,1.60
2023-08-08T19:20:25.566Z,1.60
2023-08-08T19:22:53.444Z,1.90
2023-08-08T19:25:22.476Z,2.00
2023-08-08T19:27:54.618Z,1.80
2023-08-08T19:30:23.571Z,1.80
2023-08-08T19:32:51.592Z,1.80
2023-08-08T19:35:19.392Z,1.50
2023-08-08T19:37:47.075Z,1.30
2023-08-08T19:40:14.957Z,1.50
2023-08-08T19:42:44.722Z,1.40
2023-08-08T19:45:12.409Z,1.50
2023-08-08T19:47:40.439Z,1.30
2023-08-08T19:50:08.637Z,1.70
2023-08-08T19:52:36.528Z,1.60
2023-08-08T19:55:04.891Z,1.60
2023-08-08T19:57:35.096Z,1.70
2023-08-08T20:00:05.284Z,1.70
2023-08-08T20:02:40.563Z,1.50
2023-08-08T20:05:09.587Z,1.40
2023-08-08T20:07:37.352Z,1.40
2023-08-08T20:10:06.731Z,1.40
2023-08-08T20:12:34.600Z,1.60
2023-08-08T20:15:02.529Z,1.60
2023-08-08T20:17:34.662Z,1.80
2023-08-08T20:20:02.809Z,1.80
2023-08-08T20:22:30.662Z,2.00
2023-08-08T20:24:58.588Z,1.60
2023-08-08T20:27:26.408Z,1.60
2023-08-08T20:29:54.287Z,1.50
2023-08-08T20:32:21.890Z,1.70
2023-08-08T20:34:49.917Z,1.50
2023-08-08T20:37:19.950Z,1.50
2023-08-08T20:39:47.619Z,1.80
2023-08-08T20:42:15.545Z,1.60
2023-08-08T20:44:43.533Z,1.90
2023-08-08T20:47:11.580Z,1.40
2023-08-08T20:49:39.550Z,2.10
2023-08-08T20:52:07.655Z,2.10
2023-08-08T20:54:35.361Z,1.70
2023-08-08T20:57:03.539Z,1.70
2023-08-08T20:59:49.214Z,1.70
2023-08-08T21:02:18.624Z,1.80
2023-08-08T21:04:53.517Z,1.40
2023-08-08T21:07:21.458Z,1.50
2023-08-08T21:09:49.184Z,1.70
2023-08-08T21:12:17.107Z,1.50
2023-08-08T21:14:45.060Z,1.40
2023-08-08T21:17:13.598Z,1.70
2023-08-08T21:19:41.824Z,1.70
2023-08-08T21:22:10.647Z,1.90
2023-08-08T21:24:38.653Z,1.80
2023-08-08T21:27:06.918Z,1.70
2023-08-08T21:29:34.964Z,1.80
2023-08-08T21:32:02.564Z,1.50
2023-08-08T21:34:30.516Z,1.50
2023-08-08T21:36:58.124Z,1.80
2023-08-08T21:39:25.986Z,1.60
2023-08-08T21:41:53.676Z,1.90
2023-08-08T21:44:24.146Z,1.90
2023-08-08T21:46:53.069Z,1.40
2023-08-08T21:49:20.690Z,1.80
2023-08-08T21:51:48.566Z,1.10
2023-08-08T21:54:16.864Z,1.10
2023-08-08T21:56:46.339Z,1.70
2023-08-08T21:59:14.152Z,1.50
2023-08-08T22:01:41.959Z,1.60
2023-08-08T22:04:09.888Z,1.40
2023-08-08T22:06:37.714Z,1.60
2023-08-08T22:09:09.121Z,1.40
2023-08-08T22:11:36.825Z,1.70
2023-08-08T22:14:04.791Z,1.80
2023-08-08T22:16:32.757Z,2.10
2023-08-08T22:19:00.605Z,1.90
2023-08-08T22:21:28.695Z,2.00
2023-08-08T22:23:56.453Z,1.90
2023-08-08T22:26:24.634Z,2.00
2023-08-08T22:28:59.839Z,2.00
2023-08-08T22:31:28.249Z,2.10
2023-08-08T22:33:56.431Z,1.70
2023-08-08T22:36:24.259Z,1.40
2023-08-08T22:38:52.000Z,2.30
2023-08-08T22:41:19.731Z,1.80
2023-08-08T22:43:47.488Z,1.90
2023-08-08T22:46:15.382Z,2.00
2023-08-08T22:48:43.075Z,2.10
2023-08-08T22:51:10.777Z,2.20
2023-08-08T22:53:38.675Z,2.10
2023-08-08T22:56:06.429Z,2.20
2023-08-08T22:58:58.899Z,2.10
2023-08-08T23:01:26.552Z,2.40
2023-08-08T23:03:54.407Z,1.60
2023-08-08T23:06:22.038Z,1.50
2023-08-08T23:08:50.745Z,1.80
2023-08-08T23:11:18.497Z,2.00
2023-08-08T23:13:46.478Z,2.50
2023-08-08T23:16:14.351Z,2.30
2023-08-08T23:18:42.699Z,2.40
2023-08-08T23:21:10.268Z,2.50
2023-08-08T23:23:38.248Z,2.50
2023-08-08T23:26:06.072Z,2.20
2023-08-08T23:28:33.838Z,2.50
2023-08-08T23:31:01.800Z,1.90
2023-08-08T23:33:30.183Z,2.10
2023-08-08T23:35:57.887Z,2.70
2023-08-08T23:38:25.796Z,2.00
2023-08-08T23:40:53.427Z,2.40
2023-08-08T23:43:21.026Z,2.50
2023-08-08T23:45:48.909Z,2.60
2023-08-08T23:48:16.526Z,2.90
2023-08-08T23:50:44.152Z,2.70
2023-08-08T23:53:11.873Z,3.10
2023-08-08T23:55:41.518Z,1.80
2023-08-08T23:58:09.308Z,2.10
